sensor_id;sensor_type;location;lat;lon;timestamp;P1;durP1;ratioP1;P2;durP2;ratioP2
28459;SDS011;32528;45.712;9.192;2023-03-23T00:01:41;16.70;;;10.20;;
28459;SDS011;32528;45.712;9.192;2023-03-23T00:03:42;16.85;;;8.75;;
28459;SDS011;32528;45.712;9.192;2023-03-23T00:05:43;19.45;;;8.95;;
28459;SDS011;32528;45.712;9.192;2023-03-23T00:07:50;15.20;;;8.23;;
28459;SDS011;32528;45.712;9.192;2023-03-23T00:09:52;18.38;;;8.88;;
28459;SDS011;32528;45.712;9.192;2023-03-23T00:11:54;15.00;;;8.90;;
28459;SDS011;32528;45.712;9.192;2023-03-23T00:13:57;19.35;;;8.35;;
28459;SDS011;32528;45.712;9.192;2023-03-23T00:16:02;22.50;;;9.27;;
28459;SDS011;32528;45.712;9.192;2023-03-23T00:18:03;21.00;;;8.82;;
28459;SDS011;32528;45.712;9.192;2023-03-23T00:20:05;17.70;;;9.48;;
28459;SDS011;32528;45.712;9.192;2023-03-23T00:22:06;17.58;;;7.32;;
28459;SDS011;32528;45.712;9.192;2023-03-23T00:24:08;14.43;;;8.23;;
28459;SDS011;32528;45.712;9.192;2023-03-23T00:26:11;15.60;;;9.02;;
28459;SDS011;32528;45.712;9.192;2023-03-23T00:28:12;14.15;;;7.72;;
28459;SDS011;32528;45.712;9.192;2023-03-23T00:30:14;18.02;;;8.73;;
28459;SDS011;32528;45.712;9.192;2023-03-23T00:32:15;21.58;;;8.13;;
28459;SDS011;32528;45.712;9.192;2023-03-23T00:34:17;14.30;;;8.18;;
28459;SDS011;32528;45.712;9.192;2023-03-23T00:36:19;14.70;;;8.77;;
28459;SDS011;32528;45.712;9.192;2023-03-23T00:38:23;14.30;;;8.23;;
28459;SDS011;32528;45.712;9.192;2023-03-23T00:40:27;18.45;;;8.48;;
28459;SDS011;32528;45.712;9.192;2023-03-23T00:42:28;14.25;;;8.32;;
28459;SDS011;32528;45.712;9.192;2023-03-23T00:44:32;15.35;;;8.23;;
28459;SDS011;32528;45.712;9.192;2023-03-23T00:46:35;21.10;;;8.20;;
28459;SDS011;32528;45.712;9.192;2023-03-23T00:48:45;16.63;;;9.45;;
28459;SDS011;32528;45.712;9.192;2023-03-23T00:50:46;18.63;;;8.55;;
28459;SDS011;32528;45.712;9.192;2023-03-23T00:52:47;16.33;;;8.50;;
28459;SDS011;32528;45.712;9.192;2023-03-23T00:54:49;13.95;;;8.25;;
28459;SDS011;32528;45.712;9.192;2023-03-23T00:56:50;18.38;;;9.90;;
28459;SDS011;32528;45.712;9.192;2023-03-23T00:58:52;22.23;;;10.35;;
28459;SDS011;32528;45.712;9.192;2023-03-23T01:00:52;21.00;;;10.13;;
28459;SDS011;32528;45.712;9.192;2023-03-23T01:02:53;15.07;;;7.93;;
28459;SDS011;32528;45.712;9.192;2023-03-23T01:04:54;20.10;;;9.00;;
28459;SDS011;32528;45.712;9.192;2023-03-23T01:06:56;13.90;;;8.40;;
28459;SDS011;32528;45.712;9.192;2023-03-23T01:08:58;20.10;;;8.15;;
28459;SDS011;32528;45.712;9.192;2023-03-23T01:11:06;16.58;;;8.20;;
28459;SDS011;32528;45.712;9.192;2023-03-23T01:13:07;16.55;;;8.32;;
28459;SDS011;32528;45.712;9.192;2023-03-23T01:15:08;18.55;;;6.65;;
28459;SDS011;32528;45.712;9.192;2023-03-23T01:17:12;12.77;;;7.72;;
28459;SDS011;32528;45.712;9.192;2023-03-23T01:19:13;14.82;;;8.70;;
28459;SDS011;32528;45.712;9.192;2023-03-23T01:21:16;16.25;;;7.03;;
28459;SDS011;32528;45.712;9.192;2023-03-23T01:23:18;14.65;;;8.02;;
28459;SDS011;32528;45.712;9.192;2023-03-23T01:25:19;14.27;;;8.45;;
28459;SDS011;32528;45.712;9.192;2023-03-23T01:27:20;16.85;;;7.90;;
28459;SDS011;32528;45.712;9.192;2023-03-23T01:29:21;13.30;;;7.10;;
28459;SDS011;32528;45.712;9.192;2023-03-23T01:31:24;20.05;;;8.00;;
28459;SDS011;32528;45.712;9.192;2023-03-23T01:33:26;15.48;;;7.85;;
28459;SDS011;32528;45.712;9.192;2023-03-23T01:35:27;15.20;;;7.85;;
28459;SDS011;32528;45.712;9.192;2023-03-23T01:37:27;15.50;;;8.20;;
28459;SDS011;32528;45.712;9.192;2023-03-23T01:39:30;14.77;;;7.75;;
28459;SDS011;32528;45.712;9.192;2023-03-23T01:41:31;15.75;;;6.55;;
28459;SDS011;32528;45.712;9.192;2023-03-23T01:43:35;14.27;;;8.82;;
28459;SDS011;32528;45.712;9.192;2023-03-23T01:45:53;15.38;;;6.95;;
28459;SDS011;32528;45.712;9.192;2023-03-23T01:47:59;14.27;;;7.50;;
28459;SDS011;32528;45.712;9.192;2023-03-23T01:50:04;10.55;;;6.75;;
28459;SDS011;32528;45.712;9.192;2023-03-23T01:52:06;12.60;;;7.60;;
28459;SDS011;32528;45.712;9.192;2023-03-23T01:54:14;20.83;;;8.43;;
28459;SDS011;32528;45.712;9.192;2023-03-23T01:56:22;19.73;;;7.13;;
28459;SDS011;32528;45.712;9.192;2023-03-23T01:58:28;14.27;;;7.78;;
28459;SDS011;32528;45.712;9.192;2023-03-23T02:00:32;14.00;;;7.65;;
28459;SDS011;32528;45.712;9.192;2023-03-23T02:02:33;20.23;;;7.45;;
28459;SDS011;32528;45.712;9.192;2023-03-23T02:04:36;15.98;;;8.90;;
28459;SDS011;32528;45.712;9.192;2023-03-23T02:06:37;14.95;;;7.93;;
28459;SDS011;32528;45.712;9.192;2023-03-23T02:08:48;15.93;;;7.78;;
28459;SDS011;32528;45.712;9.192;2023-03-23T02:10:50;15.85;;;7.32;;
28459;SDS011;32528;45.712;9.192;2023-03-23T02:12:51;15.18;;;6.10;;
28459;SDS011;32528;45.712;9.192;2023-03-23T02:14:52;11.55;;;7.03;;
28459;SDS011;32528;45.712;9.192;2023-03-23T02:29:03;16.10;;;6.93;;
28459;SDS011;32528;45.712;9.192;2023-03-23T02:35:52;15.77;;;7.70;;
28459;SDS011;32528;45.712;9.192;2023-03-23T02:38:22;12.80;;;6.93;;
28459;SDS011;32528;45.712;9.192;2023-03-23T02:40:51;16.15;;;6.60;;
28459;SDS011;32528;45.712;9.192;2023-03-23T02:42:54;19.23;;;6.82;;
28459;SDS011;32528;45.712;9.192;2023-03-23T02:44:58;19.55;;;7.35;;
28459;SDS011;32528;45.712;9.192;2023-03-23T02:47:04;20.67;;;7.85;;
28459;SDS011;32528;45.712;9.192;2023-03-23T02:49:08;11.52;;;6.45;;
28459;SDS011;32528;45.712;9.192;2023-03-23T02:51:11;12.75;;;7.07;;
28459;SDS011;32528;45.712;9.192;2023-03-23T02:53:13;15.68;;;8.30;;
28459;SDS011;32528;45.712;9.192;2023-03-23T02:55:18;11.68;;;6.90;;
28459;SDS011;32528;45.712;9.192;2023-03-23T02:57:23;14.00;;;7.68;;
28459;SDS011;32528;45.712;9.192;2023-03-23T02:59:28;14.38;;;7.78;;
28459;SDS011;32528;45.712;9.192;2023-03-23T03:03:32;15.00;;;7.50;;
28459;SDS011;32528;45.712;9.192;2023-03-23T03:08:14;12.73;;;7.80;;
28459;SDS011;32528;45.712;9.192;2023-03-23T03:10:31;11.45;;;6.10;;
28459;SDS011;32528;45.712;9.192;2023-03-23T03:12:52;24.23;;;6.97;;
28459;SDS011;32528;45.712;9.192;2023-03-23T03:17:10;16.00;;;6.97;;
28459;SDS011;32528;45.712;9.192;2023-03-23T03:19:24;18.38;;;6.82;;
28459;SDS011;32528;45.712;9.192;2023-03-23T03:21:30;24.58;;;8.07;;
28459;SDS011;32528;45.712;9.192;2023-03-23T03:23:36;14.90;;;7.20;;
28459;SDS011;32528;45.712;9.192;2023-03-23T03:25:39;14.45;;;7.10;;
28459;SDS011;32528;45.712;9.192;2023-03-23T03:27:43;16.95;;;8.63;;
28459;SDS011;32528;45.712;9.192;2023-03-23T03:29:56;12.43;;;7.05;;
28459;SDS011;32528;45.712;9.192;2023-03-23T03:31:59;18.75;;;8.77;;
28459;SDS011;32528;45.712;9.192;2023-03-23T03:34:06;18.80;;;8.45;;
28459;SDS011;32528;45.712;9.192;2023-03-23T03:36:14;14.63;;;6.80;;
28459;SDS011;32528;45.712;9.192;2023-03-23T03:38:18;16.85;;;7.75;;
28459;SDS011;32528;45.712;9.192;2023-03-23T03:40:20;15.52;;;7.03;;
28459;SDS011;32528;45.712;9.192;2023-03-23T03:42:23;13.85;;;7.47;;
28459;SDS011;32528;45.712;9.192;2023-03-23T03:44:27;15.23;;;7.45;;
28459;SDS011;32528;45.712;9.192;2023-03-23T03:46:29;21.83;;;7.15;;
28459;SDS011;32528;45.712;9.192;2023-03-23T03:48:31;10.90;;;6.20;;
28459;SDS011;32528;45.712;9.192;2023-03-23T03:50:32;20.95;;;7.55;;
28459;SDS011;32528;45.712;9.192;2023-03-23T03:52:33;16.23;;;7.13;;
28459;SDS011;32528;45.712;9.192;2023-03-23T03:54:36;16.55;;;7.45;;
28459;SDS011;32528;45.712;9.192;2023-03-23T03:56:37;11.45;;;6.40;;
28459;SDS011;32528;45.712;9.192;2023-03-23T03:59:15;15.70;;;6.93;;
28459;SDS011;32528;45.712;9.192;2023-03-23T04:01:31;15.85;;;7.40;;
28459;SDS011;32528;45.712;9.192;2023-03-23T04:03:31;12.07;;;6.75;;
28459;SDS011;32528;45.712;9.192;2023-03-23T04:05:44;14.07;;;7.13;;
28459;SDS011;32528;45.712;9.192;2023-03-23T04:07:46;12.48;;;7.57;;
28459;SDS011;32528;45.712;9.192;2023-03-23T04:09:49;12.85;;;7.30;;
28459;SDS011;32528;45.712;9.192;2023-03-23T04:11:53;16.48;;;7.05;;
28459;SDS011;32528;45.712;9.192;2023-03-23T04:14:13;17.63;;;7.97;;
28459;SDS011;32528;45.712;9.192;2023-03-23T04:16:17;11.90;;;6.82;;
28459;SDS011;32528;45.712;9.192;2023-03-23T04:18:20;17.52;;;7.85;;
28459;SDS011;32528;45.712;9.192;2023-03-23T04:20:23;11.48;;;6.25;;
28459;SDS011;32528;45.712;9.192;2023-03-23T04:22:25;20.50;;;7.82;;
28459;SDS011;32528;45.712;9.192;2023-03-23T04:24:30;13.90;;;7.20;;
28459;SDS011;32528;45.712;9.192;2023-03-23T04:26:34;14.95;;;7.60;;
28459;SDS011;32528;45.712;9.192;2023-03-23T04:28:43;12.75;;;6.60;;
28459;SDS011;32528;45.712;9.192;2023-03-23T04:31:03;16.48;;;7.32;;
28459;SDS011;32528;45.712;9.192;2023-03-23T04:33:04;12.48;;;7.18;;
28459;SDS011;32528;45.712;9.192;2023-03-23T04:35:05;15.13;;;6.90;;
28459;SDS011;32528;45.712;9.192;2023-03-23T04:37:13;17.70;;;8.85;;
28459;SDS011;32528;45.712;9.192;2023-03-23T04:39:14;11.82;;;5.90;;
28459;SDS011;32528;45.712;9.192;2023-03-23T04:41:16;19.42;;;7.50;;
28459;SDS011;32528;45.712;9.192;2023-03-23T04:43:36;16.60;;;7.13;;
28459;SDS011;32528;45.712;9.192;2023-03-23T04:46:02;14.85;;;6.28;;
28459;SDS011;32528;45.712;9.192;2023-03-23T04:48:09;17.00;;;7.18;;
28459;SDS011;32528;45.712;9.192;2023-03-23T04:50:21;15.55;;;8.27;;
28459;SDS011;32528;45.712;9.192;2023-03-23T04:52:24;16.13;;;7.28;;
28459;SDS011;32528;45.712;9.192;2023-03-23T04:54:29;15.48;;;7.63;;
28459;SDS011;32528;45.712;9.192;2023-03-23T04:56:34;14.07;;;8.00;;
28459;SDS011;32528;45.712;9.192;2023-03-23T04:58:42;15.90;;;7.55;;
28459;SDS011;32528;45.712;9.192;2023-03-23T05:01:06;14.65;;;7.57;;
28459;SDS011;32528;45.712;9.192;2023-03-23T05:03:13;11.45;;;6.93;;
28459;SDS011;32528;45.712;9.192;2023-03-23T05:05:18;15.35;;;7.57;;
28459;SDS011;32528;45.712;9.192;2023-03-23T05:07:20;15.38;;;6.88;;
28459;SDS011;32528;45.712;9.192;2023-03-23T05:09:22;13.73;;;6.85;;
28459;SDS011;32528;45.712;9.192;2023-03-23T05:11:24;16.13;;;7.07;;
28459;SDS011;32528;45.712;9.192;2023-03-23T05:13:29;16.20;;;6.90;;
28459;SDS011;32528;45.712;9.192;2023-03-23T05:15:32;14.75;;;6.55;;
28459;SDS011;32528;45.712;9.192;2023-03-23T05:17:35;13.63;;;7.15;;
28459;SDS011;32528;45.712;9.192;2023-03-23T05:19:44;12.13;;;7.13;;
28459;SDS011;32528;45.712;9.192;2023-03-23T05:22:10;31.52;;;9.38;;
28459;SDS011;32528;45.712;9.192;2023-03-23T05:24:19;14.85;;;7.90;;
28459;SDS011;32528;45.712;9.192;2023-03-23T05:26:22;15.60;;;7.22;;
28459;SDS011;32528;45.712;9.192;2023-03-23T05:28:29;14.98;;;7.05;;
28459;SDS011;32528;45.712;9.192;2023-03-23T05:30:45;13.13;;;7.35;;
28459;SDS011;32528;45.712;9.192;2023-03-23T05:32:48;20.10;;;6.70;;
28459;SDS011;32528;45.712;9.192;2023-03-23T05:35:08;16.85;;;8.18;;
28459;SDS011;32528;45.712;9.192;2023-03-23T05:37:10;16.48;;;7.57;;
28459;SDS011;32528;45.712;9.192;2023-03-23T05:39:30;13.95;;;6.72;;
28459;SDS011;32528;45.712;9.192;2023-03-23T05:41:51;16.17;;;7.32;;
28459;SDS011;32528;45.712;9.192;2023-03-23T05:43:52;16.08;;;7.90;;
28459;SDS011;32528;45.712;9.192;2023-03-23T05:46:16;14.73;;;7.00;;
28459;SDS011;32528;45.712;9.192;2023-03-23T05:48:18;16.10;;;7.75;;
28459;SDS011;32528;45.712;9.192;2023-03-23T05:50:20;15.90;;;8.68;;
28459;SDS011;32528;45.712;9.192;2023-03-23T05:52:21;15.07;;;7.78;;
28459;SDS011;32528;45.712;9.192;2023-03-23T05:54:25;14.95;;;7.60;;
28459;SDS011;32528;45.712;9.192;2023-03-23T05:56:27;13.68;;;7.97;;
28459;SDS011;32528;45.712;9.192;2023-03-23T05:58:39;17.48;;;7.88;;
28459;SDS011;32528;45.712;9.192;2023-03-23T06:00:40;20.67;;;9.25;;
28459;SDS011;32528;45.712;9.192;2023-03-23T06:02:54;16.00;;;7.97;;
28459;SDS011;32528;45.712;9.192;2023-03-23T06:05:03;26.42;;;7.90;;
28459;SDS011;32528;45.712;9.192;2023-03-23T06:07:07;25.42;;;8.30;;
28459;SDS011;32528;45.712;9.192;2023-03-23T06:09:13;20.67;;;9.52;;
28459;SDS011;32528;45.712;9.192;2023-03-23T06:11:45;14.48;;;7.88;;
28459;SDS011;32528;45.712;9.192;2023-03-23T06:14:12;14.32;;;7.88;;
28459;SDS011;32528;45.712;9.192;2023-03-23T06:16:13;14.95;;;7.65;;
28459;SDS011;32528;45.712;9.192;2023-03-23T06:18:14;19.35;;;8.30;;
28459;SDS011;32528;45.712;9.192;2023-03-23T06:20:24;17.40;;;8.45;;
28459;SDS011;32528;45.712;9.192;2023-03-23T06:22:26;25.02;;;9.35;;
28459;SDS011;32528;45.712;9.192;2023-03-23T06:24:44;23.75;;;7.28;;
28459;SDS011;32528;45.712;9.192;2023-03-23T06:26:48;15.88;;;8.57;;
28459;SDS011;32528;45.712;9.192;2023-03-23T06:28:55;15.63;;;8.20;;
28459;SDS011;32528;45.712;9.192;2023-03-23T06:30:58;16.20;;;7.03;;
28459;SDS011;32528;45.712;9.192;2023-03-23T06:33:01;12.63;;;6.45;;
28459;SDS011;32528;45.712;9.192;2023-03-23T06:35:25;21.08;;;8.52;;
28459;SDS011;32528;45.712;9.192;2023-03-23T06:37:46;19.27;;;8.38;;
28459;SDS011;32528;45.712;9.192;2023-03-23T06:40:04;14.60;;;8.18;;
28459;SDS011;32528;45.712;9.192;2023-03-23T06:42:12;17.98;;;8.57;;
28459;SDS011;32528;45.712;9.192;2023-03-23T06:44:19;21.40;;;10.02;;
28459;SDS011;32528;45.712;9.192;2023-03-23T06:46:20;15.82;;;7.28;;
28459;SDS011;32528;45.712;9.192;2023-03-23T06:48:44;25.30;;;11.82;;
28459;SDS011;32528;45.712;9.192;2023-03-23T06:50:49;28.40;;;14.45;;
28459;SDS011;32528;45.712;9.192;2023-03-23T06:52:52;34.83;;;14.40;;
28459;SDS011;32528;45.712;9.192;2023-03-23T06:54:54;31.58;;;13.90;;
28459;SDS011;32528;45.712;9.192;2023-03-23T06:56:55;30.48;;;15.48;;
28459;SDS011;32528;45.712;9.192;2023-03-23T06:58:57;57.97;;;25.85;;
28459;SDS011;32528;45.712;9.192;2023-03-23T07:00:59;60.22;;;28.60;;
28459;SDS011;32528;45.712;9.192;2023-03-23T07:03:08;65.50;;;30.70;;
28459;SDS011;32528;45.712;9.192;2023-03-23T07:05:12;60.30;;;29.80;;
28459;SDS011;32528;45.712;9.192;2023-03-23T07:07:13;38.92;;;22.65;;
28459;SDS011;32528;45.712;9.192;2023-03-23T07:09:24;48.00;;;24.13;;
28459;SDS011;32528;45.712;9.192;2023-03-23T07:11:25;41.67;;;22.10;;
28459;SDS011;32528;45.712;9.192;2023-03-23T07:13:27;47.65;;;22.60;;
28459;SDS011;32528;45.712;9.192;2023-03-23T07:15:33;42.42;;;24.63;;
28459;SDS011;32528;45.712;9.192;2023-03-23T07:17:35;45.50;;;27.42;;
28459;SDS011;32528;45.712;9.192;2023-03-23T07:19:51;54.15;;;27.52;;
28459;SDS011;32528;45.712;9.192;2023-03-23T07:21:52;53.40;;;27.92;;
28459;SDS011;32528;45.712;9.192;2023-03-23T07:23:56;45.05;;;25.15;;
28459;SDS011;32528;45.712;9.192;2023-03-23T07:26:13;38.33;;;21.27;;
28459;SDS011;32528;45.712;9.192;2023-03-23T07:28:21;50.22;;;23.80;;
28459;SDS011;32528;45.712;9.192;2023-03-23T07:30:23;47.28;;;23.42;;
28459;SDS011;32528;45.712;9.192;2023-03-23T07:32:25;48.22;;;21.63;;
28459;SDS011;32528;45.712;9.192;2023-03-23T07:34:27;38.30;;;19.63;;
28459;SDS011;32528;45.712;9.192;2023-03-23T07:36:38;32.25;;;20.38;;
28459;SDS011;32528;45.712;9.192;2023-03-23T07:38:42;39.28;;;19.55;;
28459;SDS011;32528;45.712;9.192;2023-03-23T07:40:45;34.88;;;20.17;;
28459;SDS011;32528;45.712;9.192;2023-03-23T07:42:52;30.73;;;17.25;;
28459;SDS011;32528;45.712;9.192;2023-03-23T07:45:03;30.98;;;16.63;;
28459;SDS011;32528;45.712;9.192;2023-03-23T07:47:04;36.55;;;17.15;;
28459;SDS011;32528;45.712;9.192;2023-03-23T07:49:06;27.50;;;13.52;;
28459;SDS011;32528;45.712;9.192;2023-03-23T07:51:15;32.05;;;13.75;;
28459;SDS011;32528;45.712;9.192;2023-03-23T07:53:19;15.43;;;8.80;;
28459;SDS011;32528;45.712;9.192;2023-03-23T07:55:30;13.93;;;8.00;;
28459;SDS011;32528;45.712;9.192;2023-03-23T07:58:04;14.85;;;7.53;;
28459;SDS011;32528;45.712;9.192;2023-03-23T08:00:06;21.25;;;6.75;;
28459;SDS011;32528;45.712;9.192;2023-03-23T08:02:15;10.77;;;5.25;;
28459;SDS011;32528;45.712;9.192;2023-03-23T08:04:42;11.35;;;6.00;;
28459;SDS011;32528;45.712;9.192;2023-03-23T08:06:54;11.35;;;5.82;;
28459;SDS011;32528;45.712;9.192;2023-03-23T08:09:08;11.90;;;5.72;;
28459;SDS011;32528;45.712;9.192;2023-03-23T08:11:45;13.57;;;6.43;;
28459;SDS011;32528;45.712;9.192;2023-03-23T08:14:09;13.30;;;6.38;;
28459;SDS011;32528;45.712;9.192;2023-03-23T08:16:12;15.50;;;7.03;;
28459;SDS011;32528;45.712;9.192;2023-03-23T08:18:45;16.55;;;6.75;;
28459;SDS011;32528;45.712;9.192;2023-03-23T08:20:47;12.02;;;5.97;;
28459;SDS011;32528;45.712;9.192;2023-03-23T08:23:07;12.63;;;6.68;;
28459;SDS011;32528;45.712;9.192;2023-03-23T08:25:13;14.30;;;6.93;;
28459;SDS011;32528;45.712;9.192;2023-03-23T08:27:49;20.52;;;6.85;;
28459;SDS011;32528;45.712;9.192;2023-03-23T08:30:05;10.50;;;6.53;;
28459;SDS011;32528;45.712;9.192;2023-03-23T08:32:26;14.52;;;7.38;;
28459;SDS011;32528;45.712;9.192;2023-03-23T08:34:40;14.13;;;6.03;;
28459;SDS011;32528;45.712;9.192;2023-03-23T08:37:02;16.52;;;5.70;;
28459;SDS011;32528;45.712;9.192;2023-03-23T08:39:21;16.23;;;6.43;;
28459;SDS011;32528;45.712;9.192;2023-03-23T08:41:37;14.20;;;6.50;;
28459;SDS011;32528;45.712;9.192;2023-03-23T08:43:49;18.15;;;6.47;;
28459;SDS011;32528;45.712;9.192;2023-03-23T08:46:10;16.50;;;6.22;;
28459;SDS011;32528;45.712;9.192;2023-03-23T08:48:28;20.00;;;6.85;;
28459;SDS011;32528;45.712;9.192;2023-03-23T08:50:47;8.35;;;6.13;;
28459;SDS011;32528;45.712;9.192;2023-03-23T08:53:24;15.75;;;6.53;;
28459;SDS011;32528;45.712;9.192;2023-03-23T08:55:36;12.35;;;6.70;;
28459;SDS011;32528;45.712;9.192;2023-03-23T08:58:01;12.57;;;6.43;;
28459;SDS011;32528;45.712;9.192;2023-03-23T09:00:22;10.85;;;6.93;;
28459;SDS011;32528;45.712;9.192;2023-03-23T09:02:45;18.00;;;7.93;;
28459;SDS011;32528;45.712;9.192;2023-03-23T09:04:54;18.60;;;6.90;;
28459;SDS011;32528;45.712;9.192;2023-03-23T09:07:12;15.57;;;7.20;;
28459;SDS011;32528;45.712;9.192;2023-03-23T09:09:14;23.25;;;7.68;;
28459;SDS011;32528;45.712;9.192;2023-03-23T09:11:15;12.35;;;7.00;;
28459;SDS011;32528;45.712;9.192;2023-03-23T09:13:16;18.08;;;7.63;;
28459;SDS011;32528;45.712;9.192;2023-03-23T09:15:17;20.20;;;7.22;;
28459;SDS011;32528;45.712;9.192;2023-03-23T09:17:18;15.75;;;7.57;;
28459;SDS011;32528;45.712;9.192;2023-03-23T09:19:19;17.70;;;7.75;;
28459;SDS011;32528;45.712;9.192;2023-03-23T09:21:20;14.43;;;7.45;;
28459;SDS011;32528;45.712;9.192;2023-03-23T09:23:22;12.13;;;7.22;;
28459;SDS011;32528;45.712;9.192;2023-03-23T09:25:24;12.90;;;6.90;;
28459;SDS011;32528;45.712;9.192;2023-03-23T09:27:26;23.25;;;7.68;;
28459;SDS011;32528;45.712;9.192;2023-03-23T09:29:27;13.57;;;6.53;;
28459;SDS011;32528;45.712;9.192;2023-03-23T09:31:29;18.75;;;6.63;;
28459;SDS011;32528;45.712;9.192;2023-03-23T09:33:31;12.32;;;6.22;;
28459;SDS011;32528;45.712;9.192;2023-03-23T09:35:36;15.30;;;7.15;;
28459;SDS011;32528;45.712;9.192;2023-03-23T09:37:38;12.27;;;6.15;;
28459;SDS011;32528;45.712;9.192;2023-03-23T09:39:40;13.70;;;5.97;;
28459;SDS011;32528;45.712;9.192;2023-03-23T09:43:57;22.90;;;6.63;;
28459;SDS011;32528;45.712;9.192;2023-03-23T09:46:14;10.90;;;6.28;;
28459;SDS011;32528;45.712;9.192;2023-03-23T09:50:34;11.30;;;6.20;;
28459;SDS011;32528;45.712;9.192;2023-03-23T09:55:03;18.70;;;7.03;;
28459;SDS011;32528;45.712;9.192;2023-03-23T09:57:07;16.38;;;6.60;;
28459;SDS011;32528;45.712;9.192;2023-03-23T09:59:42;13.77;;;6.68;;
28459;SDS011;32528;45.712;9.192;2023-03-23T10:01:52;8.90;;;5.47;;
28459;SDS011;32528;45.712;9.192;2023-03-23T10:04:00;18.17;;;7.13;;
28459;SDS011;32528;45.712;9.192;2023-03-23T10:06:10;13.45;;;6.55;;
28459;SDS011;32528;45.712;9.192;2023-03-23T10:08:14;19.92;;;6.90;;
28459;SDS011;32528;45.712;9.192;2023-03-23T10:10:18;16.13;;;6.45;;
28459;SDS011;32528;45.712;9.192;2023-03-23T10:14:34;14.35;;;6.75;;
28459;SDS011;32528;45.712;9.192;2023-03-23T10:17:03;17.00;;;6.57;;
28459;SDS011;32528;45.712;9.192;2023-03-23T10:19:11;14.90;;;6.20;;
28459;SDS011;32528;45.712;9.192;2023-03-23T10:21:17;13.48;;;7.40;;
28459;SDS011;32528;45.712;9.192;2023-03-23T10:25:43;16.23;;;7.32;;
28459;SDS011;32528;45.712;9.192;2023-03-23T10:30:19;13.25;;;8.25;;
28459;SDS011;32528;45.712;9.192;2023-03-23T10:32:48;12.63;;;8.05;;
28459;SDS011;32528;45.712;9.192;2023-03-23T10:34:59;14.02;;;7.20;;
28459;SDS011;32528;45.712;9.192;2023-03-23T10:37:10;13.75;;;7.93;;
28459;SDS011;32528;45.712;9.192;2023-03-23T10:39:21;11.85;;;7.45;;
28459;SDS011;32528;45.712;9.192;2023-03-23T10:41:24;16.05;;;8.32;;
28459;SDS011;32528;45.712;9.192;2023-03-23T10:43:25;14.38;;;7.07;;
28459;SDS011;32528;45.712;9.192;2023-03-23T10:45:28;12.23;;;6.50;;
28459;SDS011;32528;45.712;9.192;2023-03-23T10:47:32;26.17;;;7.88;;
28459;SDS011;32528;45.712;9.192;2023-03-23T10:49:41;18.88;;;6.95;;
28459;SDS011;32528;45.712;9.192;2023-03-23T10:52:00;13.65;;;7.65;;
28459;SDS011;32528;45.712;9.192;2023-03-23T10:54:06;14.57;;;6.90;;
28459;SDS011;32528;45.712;9.192;2023-03-23T10:56:18;12.93;;;7.82;;
28459;SDS011;32528;45.712;9.192;2023-03-23T10:58:41;15.43;;;7.70;;
28459;SDS011;32528;45.712;9.192;2023-03-23T11:00:46;15.02;;;8.10;;
28459;SDS011;32528;45.712;9.192;2023-03-23T11:03:04;13.63;;;8.02;;
28459;SDS011;32528;45.712;9.192;2023-03-23T11:07:21;19.52;;;8.48;;
28459;SDS011;32528;45.712;9.192;2023-03-23T11:09:39;18.55;;;8.57;;
28459;SDS011;32528;45.712;9.192;2023-03-23T11:11:52;15.13;;;7.95;;
28459;SDS011;32528;45.712;9.192;2023-03-23T11:13:58;17.08;;;8.50;;
28459;SDS011;32528;45.712;9.192;2023-03-23T11:18:38;17.10;;;8.98;;
28459;SDS011;32528;45.712;9.192;2023-03-23T11:20:41;18.35;;;9.02;;
28459;SDS011;32528;45.712;9.192;2023-03-23T11:22:44;19.35;;;9.45;;
28459;SDS011;32528;45.712;9.192;2023-03-23T11:24:47;22.52;;;9.20;;
28459;SDS011;32528;45.712;9.192;2023-03-23T11:26:52;16.05;;;9.32;;
28459;SDS011;32528;45.712;9.192;2023-03-23T11:31:20;13.93;;;8.27;;
28459;SDS011;32528;45.712;9.192;2023-03-23T11:35:47;14.50;;;7.72;;
28459;SDS011;32528;45.712;9.192;2023-03-23T11:37:52;17.70;;;8.55;;
28459;SDS011;32528;45.712;9.192;2023-03-23T11:40:18;21.10;;;10.00;;
28459;SDS011;32528;45.712;9.192;2023-03-23T11:42:25;15.15;;;8.05;;
28459;SDS011;32528;45.712;9.192;2023-03-23T11:44:41;17.40;;;8.15;;
28459;SDS011;32528;45.712;9.192;2023-03-23T11:47:07;17.30;;;8.73;;
28459;SDS011;32528;45.712;9.192;2023-03-23T11:49:26;15.98;;;8.82;;
28459;SDS011;32528;45.712;9.192;2023-03-23T11:53:55;19.23;;;9.23;;
28459;SDS011;32528;45.712;9.192;2023-03-23T11:58:17;20.70;;;9.88;;
28459;SDS011;32528;45.712;9.192;2023-03-23T12:00:20;17.60;;;8.98;;
28459;SDS011;32528;45.712;9.192;2023-03-23T12:06:04;20.33;;;9.65;;
28459;SDS011;32528;45.712;9.192;2023-03-23T12:26:17;27.10;;;11.90;;
28459;SDS011;32528;45.712;9.192;2023-03-23T12:28:33;18.33;;;11.13;;
28459;SDS011;32528;45.712;9.192;2023-03-23T12:37:47;20.17;;;9.80;;
28459;SDS011;32528;45.712;9.192;2023-03-23T12:42:21;16.77;;;11.00;;
28459;SDS011;32528;45.712;9.192;2023-03-23T12:44:29;22.60;;;11.68;;
28459;SDS011;32528;45.712;9.192;2023-03-23T12:53:26;15.88;;;9.60;;
28459;SDS011;32528;45.712;9.192;2023-03-23T12:56:10;14.93;;;9.55;;
28459;SDS011;32528;45.712;9.192;2023-03-23T12:58:26;15.98;;;8.60;;
28459;SDS011;32528;45.712;9.192;2023-03-23T13:00:33;13.13;;;9.68;;
28459;SDS011;32528;45.712;9.192;2023-03-23T13:02:44;29.20;;;9.35;;
28459;SDS011;32528;45.712;9.192;2023-03-23T13:04:55;23.55;;;9.30;;
28459;SDS011;32528;45.712;9.192;2023-03-23T13:07:05;17.63;;;8.52;;
28459;SDS011;32528;45.712;9.192;2023-03-23T13:09:19;13.30;;;7.32;;
28459;SDS011;32528;45.712;9.192;2023-03-23T13:11:40;17.13;;;9.15;;
28459;SDS011;32528;45.712;9.192;2023-03-23T13:13:53;17.70;;;8.95;;
28459;SDS011;32528;45.712;9.192;2023-03-23T13:18:25;13.63;;;8.13;;
28459;SDS011;32528;45.712;9.192;2023-03-23T13:21:06;18.95;;;8.93;;
28459;SDS011;32528;45.712;9.192;2023-03-23T13:23:21;20.05;;;9.05;;
28459;SDS011;32528;45.712;9.192;2023-03-23T13:28:01;20.63;;;8.55;;
28459;SDS011;32528;45.712;9.192;2023-03-23T13:30:03;17.27;;;9.13;;
28459;SDS011;32528;45.712;9.192;2023-03-23T13:32:10;14.27;;;8.00;;
28459;SDS011;32528;45.712;9.192;2023-03-23T13:34:19;15.07;;;7.93;;
28459;SDS011;32528;45.712;9.192;2023-03-23T13:36:33;19.45;;;8.43;;
28459;SDS011;32528;45.712;9.192;2023-03-23T13:38:38;20.00;;;8.95;;
28459;SDS011;32528;45.712;9.192;2023-03-23T13:40:47;16.45;;;9.05;;
28459;SDS011;32528;45.712;9.192;2023-03-23T13:42:52;19.45;;;8.50;;
28459;SDS011;32528;45.712;9.192;2023-03-23T13:44:56;19.15;;;8.73;;
28459;SDS011;32528;45.712;9.192;2023-03-23T13:47:42;18.42;;;7.93;;
28459;SDS011;32528;45.712;9.192;2023-03-23T13:49:45;14.30;;;8.88;;
28459;SDS011;32528;45.712;9.192;2023-03-23T13:52:15;13.75;;;7.78;;
28459;SDS011;32528;45.712;9.192;2023-03-23T13:56:41;15.75;;;7.80;;
28459;SDS011;32528;45.712;9.192;2023-03-23T13:58:48;12.77;;;6.72;;
28459;SDS011;32528;45.712;9.192;2023-03-23T14:01:10;12.55;;;8.07;;
28459;SDS011;32528;45.712;9.192;2023-03-23T14:03:59;15.43;;;8.50;;
28459;SDS011;32528;45.712;9.192;2023-03-23T14:05:42;14.10;;;7.65;;
28459;SDS011;32528;45.712;9.192;2023-03-23T14:08:02;15.75;;;8.18;;
28459;SDS011;32528;45.712;9.192;2023-03-23T14:10:14;12.57;;;6.00;;
28459;SDS011;32528;45.712;9.192;2023-03-23T14:12:21;10.45;;;5.72;;
28459;SDS011;32528;45.712;9.192;2023-03-23T14:14:29;14.05;;;6.18;;
28459;SDS011;32528;45.712;9.192;2023-03-23T14:18:39;14.68;;;5.38;;
28459;SDS011;32528;45.712;9.192;2023-03-23T14:20:42;14.40;;;6.03;;